Time;durP1;ratioP1;P1;durP2;ratioP2;P2;SDS_P1;SDS_P2;PMS_P1;PMS_P2;Temp;Humidity;BMP_temperature;BMP_pressure;BME280_temperature;BME280_humidity;BME280_pressure;Samples;Min_cycle;Max_cycle;Signal;HPM_P1;HPM_P2
2022/09/28 00:02:01;;;;;;;;;;;;;;;15.87;71.96;99474.80;1677887;85;25806;-60
2022/09/28 00:04:27;;;;;;;;;;;;;;;15.91;72.04;99476.05;1676545;85;25738;-60
2022/09/28 00:06:53;;;;;;;;;;;;;;;15.93;72.20;99467.73;1677049;85;27101;-60
2022/09/28 00:09:20;;;;;;;;;;;;;;;15.95;72.26;99463.77;1677742;85;25811;-60
2022/09/28 00:11:46;;;;;;;;;;;;;;;15.96;72.31;99467.30;1680585;85;25835;-60
2022/09/28 00:14:14;;;;;;;;;;;;;;;15.95;72.11;99474.62;1680507;85;28014;-60
2022/09/28 00:16:42;;;;;;;;;;;;;;;15.95;72.26;99467.84;1680719;85;25832;-60
2022/09/28 00:19:10;;;;;;;;;;;;;;;15.93;72.15;99471.27;1679228;85;27490;-61
2022/09/28 00:21:39;;;;;;;;;;;;;;;15.91;72.07;99473.34;1676815;85;26389;-60
2022/09/28 00:24:11;;;;;;;;;;;;;;;15.90;71.95;99468.98;1676503;85;25793;-60
2022/09/28 00:26:42;;;;;;;;;;;;;;;15.86;71.95;99464.99;1677029;85;25802;-60
2022/09/28 00:29:27;;;;;;;;;;;;;;;15.84;72.35;99460.81;1677475;84;25883;-59
2022/09/28 00:32:01;;;;;;;;;;;;;;;15.84;72.24;99461.64;1677563;84;27609;-60
2022/09/28 00:34:30;;;;;;;;;;;;;;;15.80;71.94;99453.05;1676484;85;25779;-60
2022/09/28 00:36:58;;;;;;;;;;;;;;;15.70;72.30;99455.83;1677064;85;25828;-60
2022/09/28 00:39:25;;;;;;;;;;;;;;;15.58;72.55;99451.50;1692863;84;26462;-60
2022/09/28 00:41:53;;;;;;;;;;;;;;;15.55;72.75;99450.55;1678197;84;25750;-60
2022/09/28 00:44:32;;;;;;;;;;;;;;;15.54;73.26;99450.22;1676565;85;27482;-60
2022/09/28 00:47:11;;;;;;;;;;;;;;;15.54;73.16;99456.50;1676644;85;25774;-60
2022/09/28 00:49:44;;;;;;;;;;;;;;;15.54;73.44;99452.43;1676703;85;25707;-59
2022/09/28 00:52:15;;;;;;;;;;;;;;;15.57;73.85;99449.30;1680508;85;25909;-59
2022/09/28 00:54:42;;;;;;;;;;;;;;;15.57;73.44;99441.16;1679636;85;25824;-59
2022/09/28 00:57:10;;;;;;;;;;;;;;;15.59;73.33;99445.05;1680410;85;27503;-61
2022/09/28 00:59:36;;;;;;;;;;;;;;;15.61;73.50;99447.87;1680667;85;26231;-60
2022/09/28 01:02:03;;;;;;;;;;;;;;;15.61;73.66;99442.45;1680458;84;25622;-60
2022/09/28 01:04:30;;;;;;;;;;;;;;;15.66;74.02;99437.78;1680603;85;25803;-61
2022/09/28 01:06:58;;;;;;;;;;;;;;;15.70;73.83;99444.45;1679802;85;25748;-60
2022/09/28 01:09:26;;;;;;;;;;;;;;;15.68;73.74;99443.84;1676483;85;27501;-61
2022/09/28 01:11:54;;;;;;;;;;;;;;;15.71;74.30;99436.64;1676575;85;25879;-61
2022/09/28 01:14:24;;;;;;;;;;;;;;;15.75;74.34;99435.70;1681994;85;25793;-61
2022/09/28 01:17:15;;;;;;;;;;;;;;;15.78;74.43;99428.00;1677963;85;25881;-60
2022/09/28 01:19:50;;;;;;;;;;;;;;;15.83;74.45;99435.52;1655742;85;25793;-60
2022/09/28 01:22:35;;;;;;;;;;;;;;;15.88;74.48;99435.80;1681255;85;27548;-61
2022/09/28 01:25:25;;;;;;;;;;;;;;;15.91;74.35;99441.33;1681031;85;25848;-60
2022/09/28 01:28:15;;;;;;;;;;;;;;;15.95;74.28;99437.19;1680966;85;25801;-60
2022/09/28 01:31:02;;;;;;;;;;;;;;;15.96;74.66;99434.26;1687857;84;26835;-60
2022/09/28 01:33:47;;;;;;;;;;;;;;;16.00;74.73;99436.57;1690591;85;25487;-61
2022/09/28 01:36:37;;;;;;;;;;;;;;;16.02;74.90;99426.33;1690072;85;27702;-59
2022/09/28 01:39:10;;;;;;;;;;;;;;;16.03;74.63;99433.42;1687576;84;25771;-60
2022/09/28 01:41:39;;;;;;;;;;;;;;;16.06;75.11;99436.56;1697495;84;25673;-60
2022/09/28 01:44:09;;;;;;;;;;;;;;;16.07;74.91;99430.10;1685858;84;26791;-60
2022/09/28 01:46:45;;;;;;;;;;;;;;;16.10;74.91;99426.13;1677354;84;25732;-61
2022/09/28 01:49:18;;;;;;;;;;;;;;;16.12;74.73;99418.64;1677319;85;27516;-62
2022/09/28 01:51:53;;;;;;;;;;;;;;;16.13;74.90;99420.31;1677308;85;27258;-59
2022/09/28 01:54:23;;;;;;;;;;;;;;;16.14;74.69;99417.91;1677229;85;25735;-60
2022/09/28 01:56:53;;;;;;;;;;;;;;;16.14;74.80;99421.98;1677182;83;26042;-60
2022/09/28 01:59:27;;;;;;;;;;;;;;;16.14;74.70;99423.34;1677357;85;25844;-61
2022/09/28 02:02:02;;;;;;;;;;;;;;;16.14;74.84;99419.80;1677543;84;28017;-61
2022/09/28 02:04:38;;;;;;;;;;;;;;;16.16;74.94;99425.84;1677230;85;25717;-60
2022/09/28 02:07:11;;;;;;;;;;;;;;;16.15;75.16;99421.45;1675996;85;25761;-61
2022/09/28 02:09:41;;;;;;;;;;;;;;;16.18;75.23;99431.90;1676928;85;27214;-60
2022/09/28 02:12:12;;;;;;;;;;;;;;;16.19;75.26;99431.69;1677553;84;25737;-61
2022/09/28 02:14:40;;;;;;;;;;;;;;;16.23;75.42;99428.03;1678058;85;27323;-60
2022/09/28 02:17:09;;;;;;;;;;;;;;;16.26;75.35;99427.63;1677130;85;25760;-60
2022/09/28 02:19:35;;;;;;;;;;;;;;;16.28;75.31;99432.34;1680598;85;26420;-60
2022/09/28 02:22:22;;;;;;;;;;;;;;;16.28;75.36;99430.45;1680451;85;25784;-60
2022/09/28 02:24:55;;;;;;;;;;;;;;;16.30;75.24;99434.34;1679969;85;25505;-59
2022/09/28 02:27:27;;;;;;;;;;;;;;;16.29;75.12;99429.95;1679692;85;27056;-60
2022/09/28 02:29:53;;;;;;;;;;;;;;;16.29;75.19;99427.23;1685185;84;25748;-60
2022/09/28 02:32:20;;;;;;;;;;;;;;;16.30;75.36;99435.69;1681223;84;26643;-60
2022/09/28 02:34:47;;;;;;;;;;;;;;;16.32;75.30;99439.01;1700872;84;25792;-60
2022/09/28 02:37:14;;;;;;;;;;;;;;;16.33;75.42;99448.83;1654499;86;25743;-61
2022/09/28 02:39:40;;;;;;;;;;;;;;;16.37;75.81;99457.39;1700840;83;27458;-60
2022/09/28 02:42:27;;;;;;;;;;;;;;;16.39;76.12;99456.66;1711408;83;25611;-60
2022/09/28 02:45:17;;;;;;;;;;;;;;;16.40;75.81;99461.05;1709271;84;25652;-60
2022/09/28 02:47:56;;;;;;;;;;;;;;;16.39;75.52;99462.95;1653105;86;28092;-60
2022/09/28 02:50:44;;;;;;;;;;;;;;;16.42;75.51;99456.27;1652335;86;25879;-61
2022/09/28 02:53:31;;;;;;;;;;;;;;;16.44;75.97;99465.05;1654404;86;27480;-61
2022/09/28 02:56:11;;;;;;;;;;;;;;;16.46;75.97;99471.08;1667927;85;25960;-60
2022/09/28 02:58:47;;;;;;;;;;;;;;;16.49;76.16;99478.81;1680560;85;25870;-60
2022/09/28 03:01:23;;;;;;;;;;;;;;;16.51;76.22;99478.09;1677457;85;25819;-60
2022/09/28 03:03:56;;;;;;;;;;;;;;;16.52;76.16;99475.70;1684540;84;25823;-60
2022/09/28 03:06:33;;;;;;;;;;;;;;;16.53;76.16;99473.30;1681116;85;27965;-61
2022/09/28 03:09:03;;;;;;;;;;;;;;;16.54;76.35;99476.84;1662713;85;25963;-61
2022/09/28 03:11:41;;;;;;;;;;;;;;;16.54;75.75;99473.59;1676126;85;25739;-60
2022/09/28 03:14:09;;;;;;;;;;;;;;;16.55;75.85;99469.83;1676990;85;25905;-61
2022/09/28 03:16:43;;;;;;;;;;;;;;;16.58;75.95;99464.53;1680443;84;26186;-60
2022/09/28 03:19:11;;;;;;;;;;;;;;;16.58;75.96;99462.64;1677449;85;27656;-60
2022/09/28 03:21:38;;;;;;;;;;;;;;;16.58;75.99;99461.28;1677178;85;25728;-60
2022/09/28 03:24:07;;;;;;;;;;;;;;;16.59;76.32;99459.39;1677535;85;25511;-60
2022/09/28 03:26:34;;;;;;;;;;;;;;;16.53;76.20;99458.88;1677330;85;25945;-59
2022/09/28 03:29:01;;;;;;;;;;;;;;;16.47;76.24;99465.14;1677484;85;25826;-60
2022/09/28 03:31:28;;;;;;;;;;;;;;;16.47;76.28;99470.57;1717758;83;28270;-61
2022/09/28 03:33:55;;;;;;;;;;;;;;;16.48;76.37;99476.32;1717495;83;25631;-60
2022/09/28 03:36:22;;;;;;;;;;;;;;;16.50;76.53;99479.13;1690970;83;25797;-60
2022/09/28 03:38:53;;;;;;;;;;;;;;;16.51;76.28;99477.24;1693976;83;25724;-61
2022/09/28 03:41:20;;;;;;;;;;;;;;;16.50;76.00;99479.64;1717832;83;25758;-60
2022/09/28 03:43:47;;;;;;;;;;;;;;;16.44;75.88;99467.76;1717203;83;27489;-60
2022/09/28 03:46:14;;;;;;;;;;;;;;;16.42;75.84;99469.30;1695214;83;25902;-60
2022/09/28 03:48:43;;;;;;;;;;;;;;;16.41;76.27;99473.59;1681341;85;25856;-60
2022/09/28 03:51:11;;;;;;;;;;;;;;;16.41;76.18;99483.91;1681455;85;26795;-60
2022/09/28 03:53:38;;;;;;;;;;;;;;;16.34;76.32;99479.00;1681343;85;26192;-60
2022/09/28 03:56:14;;;;;;;;;;;;;;;16.33;76.62;99471.07;1670121;85;27554;-61
2022/09/28 03:58:41;;;;;;;;;;;;;;;16.27;76.70;99472.72;1677439;85;25820;-62
2022/09/28 04:01:17;;;;;;;;;;;;;;;16.23;76.73;99466.87;1677617;85;25740;-60
2022/09/28 04:03:45;;;;;;;;;;;;;;;16.26;77.15;99477.83;1677219;85;26274;-61
2022/09/28 04:06:12;;;;;;;;;;;;;;;16.28;77.15;99487.97;1679636;85;25637;-60
2022/09/28 04:08:39;;;;;;;;;;;;;;;16.30;76.87;99482.33;1681289;85;27500;-60
2022/09/28 04:11:05;;;;;;;;;;;;;;;16.27;77.02;99483.05;1681356;85;25788;-59
2022/09/28 04:13:33;;;;;;;;;;;;;;;16.20;78.17;99484.09;1681337;85;25799;-61
2022/09/28 04:16:00;;;;;;;;;;;;;;;16.09;77.65;99483.64;1676799;85;25897;-60
2022/09/28 04:18:29;;;;;;;;;;;;;;;16.06;77.22;99478.61;1674707;85;25801;-61
2022/09/28 04:21:10;;;;;;;;;;;;;;;16.07;77.44;99482.17;1644814;85;28398;-61
2022/09/28 04:23:39;;;;;;;;;;;;;;;16.04;77.70;99484.78;1678527;85;25820;-60
2022/09/28 04:26:09;;;;;;;;;;;;;;;15.95;78.76;99497.67;1678897;85;25715;-62
2022/09/28 04:31:22;;;;;;;;;;;;;;;15.75;78.89;99502.13;1696212;83;25723;-60
2022/09/28 04:33:49;;;;;;;;;;;;;;;15.74;78.96;99506.73;1696569;84;27478;-61
2022/09/28 04:36:18;;;;;;;;;;;;;;;15.78;79.16;99513.94;1682282;84;25764;-60
2022/09/28 04:38:44;;;;;;;;;;;;;;;15.81;79.15;99512.20;1692320;83;25802;-61
2022/09/28 04:41:12;;;;;;;;;;;;;;;15.86;79.05;99507.02;1686786;83;25769;-60
2022/09/28 04:43:39;;;;;;;;;;;;;;;15.94;78.86;99503.31;1676534;85;25807;-61
2022/09/28 04:46:06;;;;;;;;;;;;;;;16.02;78.87;99511.77;1674447;85;28130;-60
2022/09/28 04:48:36;;;;;;;;;;;;;;;16.04;78.55;99510.55;1673941;85;25776;-60
2022/09/28 04:51:08;;;;;;;;;;;;;;;16.12;78.59;99510.88;1675351;85;25809;-60
2022/09/28 04:53:35;;;;;;;;;;;;;;;16.17;78.56;99515.19;1673654;83;25863;-61
2022/09/28 04:56:05;;;;;;;;;;;;;;;16.19;77.99;99510.37;1676635;85;25767;-61
2022/09/28 04:58:34;;;;;;;;;;;;;;;16.24;78.11;99515.18;1675791;85;27871;-61
2022/09/28 05:01:04;;;;;;;;;;;;;;;16.27;77.99;99516.96;1675500;85;25754;-60
2022/09/28 05:03:38;;;;;;;;;;;;;;;16.33;77.90;99509.06;1648766;85;26608;-61
2022/09/28 05:06:07;;;;;;;;;;;;;;;16.42;78.01;99514.08;1676866;85;25760;-61
2022/09/28 05:08:38;;;;;;;;;;;;;;;16.41;78.31;99521.08;1677050;85;25954;-60
2022/09/28 05:11:07;;;;;;;;;;;;;;;16.39;77.98;99517.23;1676559;85;27552;-60
2022/09/28 05:13:40;;;;;;;;;;;;;;;16.32;78.24;99525.02;1662806;85;25804;-61
2022/09/28 05:16:07;;;;;;;;;;;;;;;16.28;78.16;99521.35;1674825;85;25828;-60
2022/09/28 05:18:35;;;;;;;;;;;;;;;16.29;77.96;99512.70;1675628;85;25860;-60
2022/09/28 05:21:05;;;;;;;;;;;;;;;16.30;78.14;99517.60;1664966;85;25716;-61
2022/09/28 05:23:33;;;;;;;;;;;;;;;16.32;77.93;99520.95;1677733;85;28662;-61
2022/09/28 05:26:03;;;;;;;;;;;;;;;16.37;78.82;99522.52;1677291;85;25755;-61
2022/09/28 05:28:32;;;;;;;;;;;;;;;16.33;78.36;99528.88;1677487;85;25805;-61
2022/09/28 05:31:10;;;;;;;;;;;;;;;16.39;78.68;99535.37;1629119;87;26506;-61
2022/09/28 05:33:50;;;;;;;;;;;;;;;16.32;78.95;99533.99;1660125;85;25977;-59
2022/09/28 05:36:17;;;;;;;;;;;;;;;16.28;78.96;99530.03;1686796;85;27494;-61
2022/09/28 05:38:45;;;;;;;;;;;;;;;16.27;78.79;99534.60;1683994;84;25722;-61
2022/09/28 05:41:11;;;;;;;;;;;;;;;16.28;78.96;99536.28;1680760;84;25719;-60
2022/09/28 05:43:38;;;;;;;;;;;;;;;16.35;79.03;99534.13;1673908;85;26586;-61
2022/09/28 05:46:05;;;;;;;;;;;;;;;16.38;78.95;99532.34;1673990;85;26215;-60
2022/09/28 05:48:34;;;;;;;;;;;;;;;16.43;78.88;99545.61;1673697;84;27392;-60
2022/09/28 05:51:02;;;;;;;;;;;;;;;16.43;79.39;99548.86;1662834;85;26554;-61
2022/09/28 05:53:29;;;;;;;;;;;;;;;16.47;78.79;99553.36;1675830;83;25776;-60
2022/09/28 05:56:01;;;;;;;;;;;;;;;16.53;78.60;99549.31;1683017;85;25799;-61
2022/09/28 05:58:29;;;;;;;;;;;;;;;16.63;78.51;99549.44;1672344;82;25793;-59
2022/09/28 06:00:57;;;;;;;;;;;;;;;16.72;78.39;99549.53;1672189;85;27664;-62
2022/09/28 06:03:24;;;;;;;;;;;;;;;16.78;78.18;99556.02;1677313;85;25781;-59
2022/09/28 06:05:50;;;;;;;;;;;;;;;16.78;77.85;99558.23;1679239;85;25757;-61
2022/09/28 06:08:17;;;;;;;;;;;;;;;16.79;77.77;99561.27;1678681;85;25845;-61
2022/09/28 06:10:46;;;;;;;;;;;;;;;16.79;77.86;99560.41;1677956;85;25813;-60
2022/09/28 06:13:13;;;;;;;;;;;;;;;16.75;77.73;99564.06;1665872;85;27478;-60
2022/09/28 06:15:42;;;;;;;;;;;;;;;16.77;77.79;99559.77;1675592;85;25808;-61
2022/09/28 06:18:13;;;;;;;;;;;;;;;16.79;77.99;99561.27;1678417;85;25868;-61
2022/09/28 06:20:42;;;;;;;;;;;;;;;16.81;77.88;99555.08;1676227;85;25980;-60
2022/09/28 06:23:16;;;;;;;;;;;;;;;16.88;77.76;99564.59;1676519;85;25739;-61
2022/09/28 06:25:43;;;;;;;;;;;;;;;16.91;77.44;99551.97;1668267;85;27492;-61
2022/09/28 06:28:12;;;;;;;;;;;;;;;16.95;77.49;99546.98;1676700;85;25828;-60
2022/09/28 06:30:40;;;;;;;;;;;;;;;17.03;77.33;99548.14;1690983;84;25748;-61
2022/09/28 06:33:11;;;;;;;;;;;;;;;17.14;77.25;99542.08;1677034;84;25770;-60
2022/09/28 06:35:39;;;;;;;;;;;;;;;17.24;76.99;99543.55;1676494;85;25789;-60
2022/09/28 06:38:06;;;;;;;;;;;;;;;17.27;76.69;99545.82;1679505;84;27518;-61
2022/09/28 06:40:34;;;;;;;;;;;;;;;17.41;76.65;99546.64;1673406;84;26067;-60
2022/09/28 06:43:09;;;;;;;;;;;;;;;17.53;76.44;99544.96;1677008;85;25773;-62
2022/09/28 06:45:54;;;;;;;;;;;;;;;17.61;75.63;99546.63;1681843;85;25808;-61
2022/09/28 06:48:22;;;;;;;;;;;;;;;17.66;75.78;99546.81;1691137;84;25455;-60
2022/09/28 06:50:49;;;;;;;;;;;;;;;17.75;75.53;99552.88;1678830;84;29574;-59
2022/09/28 06:53:28;;;;;;;;;;;;;;;17.78;75.15;99557.36;1676479;85;25738;-60
2022/09/28 06:56:03;;;;;;;;;;;;;;;17.82;75.00;99556.41;1675821;85;25464;-60
2022/09/28 06:58:31;;;;;;;;;;;;;;;17.92;74.84;99550.00;1676492;85;25796;-60
2022/09/28 07:00:59;;;;;;;;;;;;;;;18.05;74.82;99551.86;1678771;84;25750;-61
2022/09/28 07:03:27;;;;;;;;;;;;;;;18.19;74.45;99551.28;1680365;85;27603;-61
2022/09/28 07:06:03;;;;;;;;;;;;;;;18.34;73.67;99548.25;1659120;85;25775;-62
2022/09/28 07:08:38;;;;;;;;;;;;;;;18.40;73.51;99548.77;1677568;85;26465;-61
2022/09/28 07:11:25;;;;;;;;;;;;;;;18.54;73.32;99551.40;1624268;87;25788;-62
2022/09/28 07:13:51;;;;;;;;;;;;;;;18.64;73.15;99546.85;1666310;85;26904;-61
2022/09/28 07:16:19;;;;;;;;;;;;;;;18.82;72.08;99551.02;1682010;84;27520;-62
2022/09/28 07:18:46;;;;;;;;;;;;;;;18.83;70.08;99551.30;1680702;85;25819;-61
2022/09/28 07:21:13;;;;;;;;;;;;;;;18.82;70.43;99551.02;1680584;85;25784;-62
2022/09/28 07:23:40;;;;;;;;;;;;;;;18.82;69.36;99561.92;1680207;85;25854;-62
2022/09/28 07:26:12;;;;;;;;;;;;;;;18.91;70.03;99572.86;1653646;85;25826;-60
2022/09/28 07:28:43;;;;;;;;;;;;;;;19.01;68.91;99564.22;1675964;85;27614;-61
2022/09/28 07:31:12;;;;;;;;;;;;;;;19.07;68.58;99574.22;1668923;85;25774;-61
2022/09/28 07:33:50;;;;;;;;;;;;;;;19.03;67.49;99570.29;1680869;85;25851;-62
2022/09/28 07:36:19;;;;;;;;;;;;;;;19.01;67.00;99572.39;1681116;85;25854;-61
2022/09/28 07:38:48;;;;;;;;;;;;;;;18.95;66.59;99580.61;1684733;84;25726;-60
2022/09/28 07:41:20;;;;;;;;;;;;;;;18.88;66.95;99581.47;1689731;85;27618;-61
2022/09/28 07:43:45;;;;;;;;;;;;;;;18.97;67.57;99586.14;1689112;85;25771;-61
2022/09/28 07:46:11;;;;;;;;;;;;;;;19.00;67.76;99588.44;1689734;85;25768;-61
2022/09/28 07:48:42;;;;;;;;;;;;;;;19.10;68.13;99591.20;1689293;84;25788;-61
2022/09/28 07:51:18;;;;;;;;;;;;;;;19.20;68.24;99586.09;1688913;85;25724;-61
2022/09/28 07:53:47;;;;;;;;;;;;;;;19.18;67.85;99584.11;1688136;85;27472;-61
2022/09/28 07:56:30;;;;;;;;;;;;;;;19.20;68.19;99584.72;1664021;85;25845;-61
2022/09/28 07:58:58;;;;;;;;;;;;;;;19.29;68.29;99583.39;1688967;85;25779;-62
2022/09/28 08:01:42;;;;;;;;;;;;;;;19.35;68.09;99587.94;1689674;84;25789;-60
2022/09/28 08:04:10;;;;;;;;;;;;;;;19.46;67.93;99578.73;1689540;84;26387;-61
2022/09/28 08:06:39;;;;;;;;;;;;;;;19.58;67.55;99572.86;1689643;85;27497;-61
2022/09/28 08:09:07;;;;;;;;;;;;;;;19.78;67.70;99581.34;1689633;85;25486;-61
2022/09/28 08:11:52;;;;;;;;;;;;;;;19.98;67.13;99572.44;1689696;84;25800;-61
2022/09/28 08:14:37;;;;;;;;;;;;;;;20.11;65.94;99575.55;1683465;85;25866;-61
2022/09/28 08:17:11;;;;;;;;;;;;;;;20.28;66.12;99568.09;1664805;85;25749;-61
2022/09/28 08:22:31;;;;;;;;;;;;;;;20.31;65.25;99585.39;1665247;86;25734;-61
2022/09/28 08:24:59;;;;;;;;;;;;;;;20.43;64.05;99597.22;1665872;85;25839;-62
2022/09/28 08:27:25;;;;;;;;;;;;;;;20.48;61.62;99606.91;1673067;85;27942;-62
2022/09/28 08:29:53;;;;;;;;;;;;;;;20.44;60.63;99600.77;1674889;84;26158;-60
2022/09/28 08:32:46;;;;;;;;;;;;;;;20.63;61.46;99608.39;1660988;85;27528;-61
2022/09/28 08:35:31;;;;;;;;;;;;;;;20.79;60.19;99615.14;1676848;85;26247;-61
2022/09/28 08:38:03;;;;;;;;;;;;;;;20.68;59.34;99612.64;1651588;84;25859;-60
2022/09/28 08:41:03;;;;;;;;;;;;;;;20.63;59.46;99618.80;1676741;84;26099;-60
2022/09/28 08:43:50;;;;;;;;;;;;;;;20.46;56.94;99622.69;1657180;85;25860;-61
2022/09/28 08:46:28;;;;;;;;;;;;;;;20.58;58.50;99622.74;1649541;85;27512;-61
2022/09/28 08:49:12;;;;;;;;;;;;;;;20.85;59.42;99618.30;1679940;85;25747;-61
2022/09/28 08:51:59;;;;;;;;;;;;;;;21.01;54.93;99628.30;1669851;85;25903;-61
2022/09/28 08:54:51;;;;;;;;;;;;;;;21.22;53.73;99630.47;1664422;85;26020;-61
2022/09/28 08:57:30;;;;;;;;;;;;;;;21.46;54.68;99633.27;1665259;84;26515;-60
2022/09/28 08:59:59;;;;;;;;;;;;;;;21.69;53.23;99631.12;1669619;85;27619;-61
2022/09/28 09:02:35;;;;;;;;;;;;;;;21.79;50.66;99635.98;1665259;85;25817;-61
2022/09/28 09:05:14;;;;;;;;;;;;;;;21.92;52.27;99632.72;1665234;85;25806;-60
2022/09/28 09:08:20;;;;;;;;;;;;;;;22.14;49.60;99632.38;1665278;85;26360;-62
2022/09/28 09:11:07;;;;;;;;;;;;;;;22.57;51.10;99626.17;1665276;86;25796;-60
2022/09/28 09:13:58;;;;;;;;;;;;;;;23.18;49.22;99631.64;1665126;85;27525;-61
2022/09/28 09:16:34;;;;;;;;;;;;;;;24.06;48.29;99631.16;1665110;84;25874;-61
2022/09/28 09:19:09;;;;;;;;;;;;;;;25.07;46.47;99627.68;1665688;85;25475;-60
2022/09/28 09:21:55;;;;;;;;;;;;;;;25.78;43.99;99631.28;1675535;85;26793;-61
2022/09/28 09:24:28;;;;;;;;;;;;;;;26.52;44.50;99627.29;1681418;85;25579;-61
2022/09/28 09:27:08;;;;;;;;;;;;;;;27.25;42.97;99626.36;1677962;85;27103;-61
2022/09/28 09:29:43;;;;;;;;;;;;;;;27.83;38.49;99622.45;1674829;83;25863;-60
2022/09/28 09:32:20;;;;;;;;;;;;;;;28.41;39.17;99623.97;1650758;87;25813;-60
2022/09/28 09:34:54;;;;;;;;;;;;;;;29.17;36.91;99621.86;1651317;87;26089;-60
2022/09/28 09:37:47;;;;;;;;;;;;;;;29.40;34.38;99618.13;1623991;87;26479;-60
2022/09/28 09:40:49;;;;;;;;;;;;;;;29.88;34.61;99617.38;1695083;84;28379;-61
2022/09/28 09:44:00;;;;;;;;;;;;;;;30.42;34.62;99611.20;1699173;84;25712;-60
2022/09/28 09:46:52;;;;;;;;;;;;;;;31.14;34.34;99603.01;1686016;84;25756;-61
2022/09/28 09:49:27;;;;;;;;;;;;;;;31.78;32.32;99602.48;1688592;84;26347;-61
2022/09/28 09:52:29;;;;;;;;;;;;;;;32.20;30.23;99605.27;1689451;84;25732;-61
2022/09/28 09:55:02;;;;;;;;;;;;;;;32.55;31.36;99605.08;1671419;85;27702;-61
2022/09/28 09:57:44;;;;;;;;;;;;;;;33.40;29.83;99605.91;1682364;85;26014;-60
2022/09/28 10:00:30;;;;;;;;;;;;;;;33.90;30.26;99603.23;1688917;84;25669;-60
2022/09/28 10:03:01;;;;;;;;;;;;;;;34.36;28.84;99603.30;1688333;84;26916;-63
2022/09/28 10:05:30;;;;;;;;;;;;;;;34.88;28.57;99605.36;1688097;84;25688;-61
2022/09/28 10:08:10;;;;;;;;;;;;;;;34.63;25.28;99608.38;1689300;85;27553;-60
2022/09/28 10:10:49;;;;;;;;;;;;;;;34.50;25.02;99607.38;1688480;85;25716;-61
2022/09/28 10:13:18;;;;;;;;;;;;;;;34.83;25.84;99604.70;1685656;85;25797;-60
2022/09/28 10:15:46;;;;;;;;;;;;;;;35.12;24.81;99615.82;1662011;85;26555;-61
2022/09/28 10:18:15;;;;;;;;;;;;;;;34.85;23.61;99612.98;1689639;84;25459;-61
2022/09/28 10:21:01;;;;;;;;;;;;;;;35.23;26.52;99610.95;1663363;84;27622;-61
2022/09/28 10:23:35;;;;;;;;;;;;;;;35.96;25.08;99609.89;1675553;84;25784;-61
2022/09/28 10:26:04;;;;;;;;;;;;;;;36.24;25.09;99609.42;1691801;84;25812;-60
2022/09/28 10:28:51;;;;;;;;;;;;;;;35.99;24.29;99612.84;1692182;84;25862;-60
2022/09/28 10:31:37;;;;;;;;;;;;;;;35.91;23.35;99608.66;1692377;84;25835;-62
2022/09/28 10:34:07;;;;;;;;;;;;;;;35.67;24.66;99608.66;1693933;84;27534;-61
2022/09/28 10:36:47;;;;;;;;;;;;;;;35.71;22.02;99612.44;1665264;84;25518;-61
2022/09/28 10:39:33;;;;;;;;;;;;;;;35.42;23.00;99607.00;1702321;84;25958;-62
2022/09/28 10:42:03;;;;;;;;;;;;;;;35.78;23.65;99602.94;1665792;85;26203;-61
2022/09/28 10:44:32;;;;;;;;;;;;;;;36.10;23.60;99610.47;1665490;85;25769;-62
2022/09/28 10:47:13;;;;;;;;;;;;;;;36.56;23.52;99607.09;1677808;85;27512;-61
2022/09/28 10:49:42;;;;;;;;;;;;;;;37.04;23.66;99607.16;1682764;85;26267;-61
2022/09/28 10:52:30;;;;;;;;;;;;;;;37.14;22.14;99603.70;1685371;85;25815;-61
2022/09/28 10:54:56;;;;;;;;;;;;;;;35.89;23.04;99601.98;1690096;84;26068;-60
2022/09/28 10:57:30;;;;;;;;;;;;;;;36.16;22.89;99603.55;1690174;85;25769;-62
2022/09/28 10:59:59;;;;;;;;;;;;;;;36.50;22.99;99592.47;1690233;85;27503;-61
2022/09/28 11:02:35;;;;;;;;;;;;;;;36.44;21.64;99597.48;1689271;85;25738;-62
2022/09/28 11:05:06;;;;;;;;;;;;;;;36.06;22.73;99595.53;1690158;85;25717;-60
2022/09/28 11:07:44;;;;;;;;;;;;;;;36.53;23.02;99589.00;1689448;85;26177;-61
2022/09/28 11:10:18;;;;;;;;;;;;;;;36.57;22.14;99591.94;1690454;85;25811;-62
2022/09/28 11:12:44;;;;;;;;;;;;;;;35.91;22.60;99586.28;1689964;83;27504;-61
2022/09/28 11:15:18;;;;;;;;;;;;;;;35.37;23.38;99584.77;1690209;85;25737;-61
2022/09/28 11:17:45;;;;;;;;;;;;;;;35.16;24.23;99585.48;1689095;84;25729;-61
2022/09/28 11:20:28;;;;;;;;;;;;;;;34.98;24.28;99584.66;1690404;84;26448;-61
2022/09/28 11:23:09;;;;;;;;;;;;;;;34.43;24.03;99584.13;1690226;85;25740;-60
2022/09/28 11:25:38;;;;;;;;;;;;;;;33.05;24.54;99584.73;1690182;84;27575;-61
2022/09/28 11:28:05;;;;;;;;;;;;;;;33.01;25.75;99579.56;1690177;85;25872;-62
2022/09/28 11:30:40;;;;;;;;;;;;;;;32.83;24.87;99583.34;1689247;84;25769;-60
2022/09/28 11:33:32;;;;;;;;;;;;;;;31.92;25.70;99588.01;1683359;85;26148;-62
2022/09/28 11:36:27;;;;;;;;;;;;;;;31.50;26.75;99589.34;1683104;85;25754;-61
2022/09/28 11:39:13;;;;;;;;;;;;;;;30.88;27.48;99584.79;1677790;84;27516;-59
2022/09/28 11:41:45;;;;;;;;;;;;;;;30.58;28.23;99584.11;1696290;84;25867;-60
2022/09/28 11:44:43;;;;;;;;;;;;;;;30.12;29.06;99587.45;1696746;84;25731;-60
2022/09/28 11:47:38;;;;;;;;;;;;;;;30.17;29.40;99585.19;1696844;84;26165;-61
2022/09/28 11:50:21;;;;;;;;;;;;;;;30.28;29.65;99581.98;1697248;84;25834;-61
2022/09/28 11:53:09;;;;;;;;;;;;;;;30.36;29.50;99591.59;1697214;84;27667;-62
2022/09/28 11:55:43;;;;;;;;;;;;;;;30.42;29.28;99591.78;1696989;84;25799;-60
2022/09/28 11:58:25;;;;;;;;;;;;;;;29.94;29.63;99591.27;1697102;84;25818;-61
2022/09/28 12:01:05;;;;;;;;;;;;;;;29.49;29.78;99594.76;1677528;84;26159;-60
2022/09/28 12:03:51;;;;;;;;;;;;;;;28.97;30.97;99598.47;1695676;84;25785;-61
2022/09/28 12:06:21;;;;;;;;;;;;;;;28.42;32.33;99608.47;1673617;83;28214;-61
2022/09/28 12:08:54;;;;;;;;;;;;;;;27.98;32.86;99617.45;1678069;83;25757;-60
2022/09/28 12:11:42;;;;;;;;;;;;;;;27.84;33.41;99611.69;1668983;85;25791;-62
2022/09/28 12:14:20;;;;;;;;;;;;;;;27.41;33.94;99616.12;1679175;85;26064;-60
2022/09/28 12:16:53;;;;;;;;;;;;;;;26.94;34.85;99608.38;1673689;85;25709;-61
2022/09/28 12:19:23;;;;;;;;;;;;;;;26.56;35.49;99614.07;1677263;85;27482;-61
2022/09/28 12:21:54;;;;;;;;;;;;;;;26.49;36.12;99611.28;1677256;85;25941;-62
2022/09/28 12:24:26;;;;;;;;;;;;;;;26.44;36.44;99618.16;1677208;84;25496;-62
2022/09/28 12:27:05;;;;;;;;;;;;;;;26.45;36.08;99615.69;1673468;85;26497;-61
2022/09/28 12:29:51;;;;;;;;;;;;;;;26.62;36.99;99618.20;1680738;85;25774;-62
2022/09/28 12:32:36;;;;;;;;;;;;;;;26.64;36.76;99607.17;1682428;84;27606;-61
2022/09/28 12:35:15;;;;;;;;;;;;;;;28.14;35.67;99610.52;1682286;85;26425;-60
2022/09/28 12:38:07;;;;;;;;;;;;;;;29.62;34.37;99616.80;1682685;85;25710;-61
2022/09/28 12:40:37;;;;;;;;;;;;;;;29.80;33.33;99624.38;1673067;83;26248;-60
2022/09/28 12:43:07;;;;;;;;;;;;;;;29.81;32.33;99626.03;1681199;85;25745;-62
2022/09/28 12:45:37;;;;;;;;;;;;;;;29.83;32.01;99628.50;1680897;85;27580;-61
2022/09/28 12:48:14;;;;;;;;;;;;;;;31.03;31.00;99632.88;1681100;85;25764;-62
2022/09/28 12:51:08;;;;;;;;;;;;;;;32.46;28.26;99620.33;1678855;85;25774;-60
2022/09/28 12:53:38;;;;;;;;;;;;;;;33.43;28.92;99625.92;1677107;85;26229;-60
2022/09/28 12:56:31;;;;;;;;;;;;;;;34.78;26.26;99636.41;1680555;85;25786;-61
2022/09/28 12:59:13;;;;;;;;;;;;;;;35.54;22.38;99638.47;1681041;85;28016;-62
2022/09/28 13:01:58;;;;;;;;;;;;;;;35.94;22.55;99637.38;1679948;85;25764;-61
2022/09/28 13:04:38;;;;;;;;;;;;;;;36.42;22.37;99640.96;1677059;85;25819;-61
2022/09/28 13:07:11;;;;;;;;;;;;;;;36.59;21.45;99642.84;1677781;85;26173;-61
2022/09/28 13:10:05;;;;;;;;;;;;;;;37.35;21.69;99633.90;1690182;85;25727;-60
2022/09/28 13:12:35;;;;;;;;;;;;;;;37.73;19.84;99637.67;1690418;85;27454;-61
2022/09/28 13:15:08;;;;;;;;;;;;;;;38.58;20.49;99636.69;1689366;85;25724;-61
2022/09/28 13:17:57;;;;;;;;;;;;;;;38.95;19.55;99640.00;1676306;84;25532;-61
2022/09/28 13:20:48;;;;;;;;;;;;;;;38.17;19.52;99639.38;1688050;84;26247;-60
2022/09/28 13:23:27;;;;;;;;;;;;;;;37.01;19.33;99647.08;1691373;84;25855;-60
2022/09/28 13:26:09;;;;;;;;;;;;;;;35.79;21.49;99646.55;1662153;86;27637;-61
2022/09/28 13:28:37;;;;;;;;;;;;;;;34.83;21.38;99651.59;1691312;84;25748;-61
2022/09/28 13:31:04;;;;;;;;;;;;;;;33.55;22.50;99659.63;1644541;86;25753;-61